sensor_id;sensor_type;location;lat;lon;timestamp;P1;durP1;ratioP1;P2;durP2;ratioP2
64498;SDS011;51087;55.718;21.122;2023-02-28T00:00:32;16.27;;;5.93;;
64498;SDS011;51087;55.718;21.122;2023-02-28T00:02:58;12.68;;;4.45;;
64498;SDS011;51087;55.718;21.122;2023-02-28T00:05:24;6.43;;;2.25;;
64498;SDS011;51087;55.718;21.122;2023-02-28T00:07:51;1.83;;;0.95;;
64498;SDS011;51087;55.718;21.122;2023-02-28T00:10:20;0.28;;;0.20;;
64498;SDS011;51087;55.718;21.122;2023-02-28T00:12:51;3.03;;;0.80;;
64498;SDS011;51087;55.718;21.122;2023-02-28T00:15:17;3.15;;;1.42;;
64498;SDS011;51087;55.718;21.122;2023-02-28T00:17:43;7.65;;;1.80;;
64498;SDS011;51087;55.718;21.122;2023-02-28T00:20:09;3.63;;;0.90;;
64498;SDS011;51087;55.718;21.122;2023-02-28T00:22:46;3.53;;;1.38;;
64498;SDS011;51087;55.718;21.122;2023-02-28T00:25:15;4.13;;;1.40;;
64498;SDS011;51087;55.718;21.122;2023-02-28T00:27:42;2.95;;;0.98;;
64498;SDS011;51087;55.718;21.122;2023-02-28T00:30:10;3.65;;;0.80;;
64498;SDS011;51087;55.718;21.122;2023-02-28T00:32:37;0.73;;;0.57;;
64498;SDS011;51087;55.718;21.122;2023-02-28T00:35:03;2.92;;;0.93;;
64498;SDS011;51087;55.718;21.122;2023-02-28T00:37:29;5.65;;;1.30;;
64498;SDS011;51087;55.718;21.122;2023-02-28T00:39:55;4.25;;;1.55;;
64498;SDS011;51087;55.718;21.122;2023-02-28T00:42:21;3.08;;;1.15;;
64498;SDS011;51087;55.718;21.122;2023-02-28T00:44:46;1.92;;;1.00;;
64498;SDS011;51087;55.718;21.122;2023-02-28T00:47:12;0.57;;;0.47;;
64498;SDS011;51087;55.718;21.122;2023-02-28T00:49:37;1.85;;;0.45;;
64498;SDS011;51087;55.718;21.122;2023-02-28T00:52:03;4.93;;;0.73;;
64498;SDS011;51087;55.718;21.122;2023-02-28T00:54:29;0.90;;;0.38;;
64498;SDS011;51087;55.718;21.122;2023-02-28T00:56:54;1.35;;;0.55;;
64498;SDS011;51087;55.718;21.122;2023-02-28T00:59:19;0.93;;;0.52;;
64498;SDS011;51087;55.718;21.122;2023-02-28T01:01:45;2.33;;;0.82;;
64498;SDS011;51087;55.718;21.122;2023-02-28T01:04:11;2.30;;;0.98;;
64498;SDS011;51087;55.718;21.122;2023-02-28T01:06:37;2.72;;;0.80;;
64498;SDS011;51087;55.718;21.122;2023-02-28T01:09:03;1.13;;;0.60;;
64498;SDS011;51087;55.718;21.122;2023-02-28T01:11:30;0.52;;;0.22;;
64498;SDS011;51087;55.718;21.122;2023-02-28T01:13:57;0.80;;;0.55;;
64498;SDS011;51087;55.718;21.122;2023-02-28T01:16:23;2.10;;;0.65;;
64498;SDS011;51087;55.718;21.122;2023-02-28T01:18:48;2.17;;;0.60;;
64498;SDS011;51087;55.718;21.122;2023-02-28T01:21:15;1.55;;;0.57;;
64498;SDS011;51087;55.718;21.122;2023-02-28T01:23:42;1.10;;;0.50;;
64498;SDS011;51087;55.718;21.122;2023-02-28T01:26:09;0.40;;;0.20;;
64498;SDS011;51087;55.718;21.122;2023-02-28T01:28:37;2.35;;;0.55;;
64498;SDS011;51087;55.718;21.122;2023-02-28T01:31:02;7.97;;;0.50;;
64498;SDS011;51087;55.718;21.122;2023-02-28T01:33:28;0.65;;;0.38;;
64498;SDS011;51087;55.718;21.122;2023-02-28T01:35:57;1.23;;;0.50;;
64498;SDS011;51087;55.718;21.122;2023-02-28T01:38:30;1.10;;;0.45;;
64498;SDS011;51087;55.718;21.122;2023-02-28T01:40:56;0.30;;;0.30;;
64498;SDS011;51087;55.718;21.122;2023-02-28T01:43:23;0.73;;;0.38;;
64498;SDS011;51087;55.718;21.122;2023-02-28T01:45:51;1.83;;;0.85;;
64498;SDS011;51087;55.718;21.122;2023-02-28T01:48:19;1.08;;;0.50;;
64498;SDS011;51087;55.718;21.122;2023-02-28T01:50:51;2.15;;;0.80;;
64498;SDS011;51087;55.718;21.122;2023-02-28T01:53:18;2.10;;;0.80;;
64498;SDS011;51087;55.718;21.122;2023-02-28T01:55:49;5.60;;;0.70;;
64498;SDS011;51087;55.718;21.122;2023-02-28T01:58:17;4.38;;;0.70;;
64498;SDS011;51087;55.718;21.122;2023-02-28T02:00:43;3.53;;;0.80;;
64498;SDS011;51087;55.718;21.122;2023-02-28T02:03:09;1.50;;;0.50;;
64498;SDS011;51087;55.718;21.122;2023-02-28T02:05:37;5.10;;;0.75;;
64498;SDS011;51087;55.718;21.122;2023-02-28T02:08:05;1.70;;;0.80;;
64498;SDS011;51087;55.718;21.122;2023-02-28T02:10:35;4.15;;;0.73;;
64498;SDS011;51087;55.718;21.122;2023-02-28T02:30:12;0.63;;;0.50;;
64498;SDS011;51087;55.718;21.122;2023-02-28T02:35:54;2.55;;;0.50;;
64498;SDS011;51087;55.718;21.122;2023-02-28T02:41:18;0.65;;;0.30;;
64498;SDS011;51087;55.718;21.122;2023-02-28T02:43:53;5.70;;;1.00;;
64498;SDS011;51087;55.718;21.122;2023-02-28T02:46:26;2.38;;;1.25;;
64498;SDS011;51087;55.718;21.122;2023-02-28T02:48:56;0.32;;;0.28;;
64498;SDS011;51087;55.718;21.122;2023-02-28T02:51:25;2.15;;;0.35;;
64498;SDS011;51087;55.718;21.122;2023-02-28T02:53:55;2.45;;;0.52;;
64498;SDS011;51087;55.718;21.122;2023-02-28T02:56:28;0.52;;;0.35;;
64498;SDS011;51087;55.718;21.122;2023-02-28T02:59:01;3.17;;;0.63;;
64498;SDS011;51087;55.718;21.122;2023-02-28T03:01:29;2.75;;;0.80;;
64498;SDS011;51087;55.718;21.122;2023-02-28T03:04:06;4.90;;;0.85;;
64498;SDS011;51087;55.718;21.122;2023-02-28T03:06:35;3.78;;;0.70;;
64498;SDS011;51087;55.718;21.122;2023-02-28T03:09:00;4.72;;;0.80;;
64498;SDS011;51087;55.718;21.122;2023-02-28T03:11:26;8.80;;;1.35;;
64498;SDS011;51087;55.718;21.122;2023-02-28T03:16:46;1.15;;;0.68;;
64498;SDS011;51087;55.718;21.122;2023-02-28T03:22:23;2.25;;;0.88;;
64498;SDS011;51087;55.718;21.122;2023-02-28T03:27:53;3.83;;;0.60;;
64498;SDS011;51087;55.718;21.122;2023-02-28T03:30:49;1.00;;;0.50;;
64498;SDS011;51087;55.718;21.122;2023-02-28T03:35:50;1.98;;;0.38;;
64498;SDS011;51087;55.718;21.122;2023-02-28T03:41:05;1.55;;;0.70;;
64498;SDS011;51087;55.718;21.122;2023-02-28T03:43:35;1.70;;;0.68;;
64498;SDS011;51087;55.718;21.122;2023-02-28T03:46:07;1.98;;;0.60;;
64498;SDS011;51087;55.718;21.122;2023-02-28T03:48:38;5.93;;;0.57;;
64498;SDS011;51087;55.718;21.122;2023-02-28T03:51:17;2.22;;;0.65;;
64498;SDS011;51087;55.718;21.122;2023-02-28T03:53:50;1.17;;;0.50;;
64498;SDS011;51087;55.718;21.122;2023-02-28T03:56:20;7.95;;;0.80;;
64498;SDS011;51087;55.718;21.122;2023-02-28T04:01:31;1.35;;;0.43;;
64498;SDS011;51087;55.718;21.122;2023-02-28T04:04:01;4.35;;;0.80;;
64498;SDS011;51087;55.718;21.122;2023-02-28T04:06:27;3.25;;;0.80;;
64498;SDS011;51087;55.718;21.122;2023-02-28T04:08:55;2.40;;;0.63;;
64498;SDS011;51087;55.718;21.122;2023-02-28T04:14:02;0.15;;;0.15;;
64498;SDS011;51087;55.718;21.122;2023-02-28T04:16:29;1.77;;;0.85;;
64498;SDS011;51087;55.718;21.122;2023-02-28T04:18:55;2.15;;;0.70;;
64498;SDS011;51087;55.718;21.122;2023-02-28T04:21:34;4.20;;;0.95;;
64498;SDS011;51087;55.718;21.122;2023-02-28T04:24:02;7.28;;;1.00;;
64498;SDS011;51087;55.718;21.122;2023-02-28T04:26:28;3.85;;;0.70;;
64498;SDS011;51087;55.718;21.122;2023-02-28T04:28:58;4.20;;;0.77;;
64498;SDS011;51087;55.718;21.122;2023-02-28T04:31:24;3.83;;;1.20;;
64498;SDS011;51087;55.718;21.122;2023-02-28T04:33:50;4.40;;;1.33;;
64498;SDS011;51087;55.718;21.122;2023-02-28T04:36:15;5.70;;;1.33;;
64498;SDS011;51087;55.718;21.122;2023-02-28T04:38:43;2.03;;;0.90;;
64498;SDS011;51087;55.718;21.122;2023-02-28T04:41:09;6.03;;;0.98;;
64498;SDS011;51087;55.718;21.122;2023-02-28T04:43:35;1.27;;;0.50;;
64498;SDS011;51087;55.718;21.122;2023-02-28T04:46:01;1.10;;;0.70;;
64498;SDS011;51087;55.718;21.122;2023-02-28T04:48:29;4.03;;;0.63;;
64498;SDS011;51087;55.718;21.122;2023-02-28T04:51:17;3.13;;;0.88;;
64498;SDS011;51087;55.718;21.122;2023-02-28T04:53:43;2.45;;;0.77;;
64498;SDS011;51087;55.718;21.122;2023-02-28T04:56:10;0.77;;;0.60;;
64498;SDS011;51087;55.718;21.122;2023-02-28T04:58:37;1.52;;;0.57;;
64498;SDS011;51087;55.718;21.122;2023-02-28T05:01:06;3.13;;;1.00;;
64498;SDS011;51087;55.718;21.122;2023-02-28T05:03:43;1.25;;;0.90;;
64498;SDS011;51087;55.718;21.122;2023-02-28T05:06:09;2.08;;;0.68;;
64498;SDS011;51087;55.718;21.122;2023-02-28T05:08:35;2.08;;;0.80;;
64498;SDS011;51087;55.718;21.122;2023-02-28T05:11:01;3.38;;;0.55;;
64498;SDS011;51087;55.718;21.122;2023-02-28T05:13:26;2.80;;;0.90;;
64498;SDS011;51087;55.718;21.122;2023-02-28T05:15:53;1.38;;;0.50;;
64498;SDS011;51087;55.718;21.122;2023-02-28T05:18:18;3.00;;;0.60;;
64498;SDS011;51087;55.718;21.122;2023-02-28T05:20:44;3.22;;;0.50;;
64498;SDS011;51087;55.718;21.122;2023-02-28T05:23:11;4.03;;;1.23;;
64498;SDS011;51087;55.718;21.122;2023-02-28T05:25:38;1.58;;;0.52;;
64498;SDS011;51087;55.718;21.122;2023-02-28T05:28:04;3.85;;;0.75;;
64498;SDS011;51087;55.718;21.122;2023-02-28T05:30:29;2.88;;;1.05;;
64498;SDS011;51087;55.718;21.122;2023-02-28T05:32:56;1.65;;;0.70;;
64498;SDS011;51087;55.718;21.122;2023-02-28T05:35:22;5.28;;;0.43;;
64498;SDS011;51087;55.718;21.122;2023-02-28T05:37:48;1.85;;;0.60;;
64498;SDS011;51087;55.718;21.122;2023-02-28T05:40:14;3.53;;;0.90;;
64498;SDS011;51087;55.718;21.122;2023-02-28T05:42:40;2.03;;;0.80;;
64498;SDS011;51087;55.718;21.122;2023-02-28T05:45:06;4.05;;;0.60;;
64498;SDS011;51087;55.718;21.122;2023-02-28T05:47:32;1.90;;;0.70;;
64498;SDS011;51087;55.718;21.122;2023-02-28T05:49:58;0.45;;;0.45;;
64498;SDS011;51087;55.718;21.122;2023-02-28T05:52:23;6.40;;;0.75;;
64498;SDS011;51087;55.718;21.122;2023-02-28T05:54:49;2.58;;;0.60;;
64498;SDS011;51087;55.718;21.122;2023-02-28T05:57:14;4.70;;;0.55;;
64498;SDS011;51087;55.718;21.122;2023-02-28T05:59:40;3.78;;;1.23;;
64498;SDS011;51087;55.718;21.122;2023-02-28T06:02:06;1.55;;;1.00;;
64498;SDS011;51087;55.718;21.122;2023-02-28T06:04:37;3.28;;;0.95;;
64498;SDS011;51087;55.718;21.122;2023-02-28T06:07:02;3.08;;;0.70;;
64498;SDS011;51087;55.718;21.122;2023-02-28T06:09:28;6.55;;;0.85;;
64498;SDS011;51087;55.718;21.122;2023-02-28T06:11:54;1.88;;;0.75;;
64498;SDS011;51087;55.718;21.122;2023-02-28T06:14:19;3.80;;;0.70;;
64498;SDS011;51087;55.718;21.122;2023-02-28T06:16:45;5.35;;;0.80;;
64498;SDS011;51087;55.718;21.122;2023-02-28T06:19:11;3.47;;;2.08;;
64498;SDS011;51087;55.718;21.122;2023-02-28T06:21:37;5.43;;;1.70;;
64498;SDS011;51087;55.718;21.122;2023-02-28T06:24:03;3.08;;;0.80;;
64498;SDS011;51087;55.718;21.122;2023-02-28T06:26:29;3.42;;;0.70;;
64498;SDS011;51087;55.718;21.122;2023-02-28T06:28:55;1.45;;;0.73;;
64498;SDS011;51087;55.718;21.122;2023-02-28T06:31:21;3.08;;;1.08;;
64498;SDS011;51087;55.718;21.122;2023-02-28T06:33:47;3.38;;;1.13;;
64498;SDS011;51087;55.718;21.122;2023-02-28T06:36:13;1.60;;;0.50;;
64498;SDS011;51087;55.718;21.122;2023-02-28T06:38:39;1.88;;;0.68;;
64498;SDS011;51087;55.718;21.122;2023-02-28T06:41:06;4.00;;;0.70;;
64498;SDS011;51087;55.718;21.122;2023-02-28T06:43:34;4.47;;;0.90;;
64498;SDS011;51087;55.718;21.122;2023-02-28T06:46:03;1.33;;;0.65;;
64498;SDS011;51087;55.718;21.122;2023-02-28T06:48:30;2.33;;;0.73;;
64498;SDS011;51087;55.718;21.122;2023-02-28T06:51:03;4.55;;;1.08;;
64498;SDS011;51087;55.718;21.122;2023-02-28T06:53:30;5.65;;;0.65;;
64498;SDS011;51087;55.718;21.122;2023-02-28T06:55:55;6.28;;;1.40;;
64498;SDS011;51087;55.718;21.122;2023-02-28T06:58:21;6.47;;;0.80;;
64498;SDS011;51087;55.718;21.122;2023-02-28T07:00:50;2.72;;;1.10;;
64498;SDS011;51087;55.718;21.122;2023-02-28T07:03:16;2.47;;;0.50;;
64498;SDS011;51087;55.718;21.122;2023-02-28T07:05:43;3.15;;;1.00;;
64498;SDS011;51087;55.718;21.122;2023-02-28T07:08:09;1.05;;;0.63;;
64498;SDS011;51087;55.718;21.122;2023-02-28T07:10:37;1.25;;;0.43;;
64498;SDS011;51087;55.718;21.122;2023-02-28T07:13:03;6.20;;;1.25;;
64498;SDS011;51087;55.718;21.122;2023-02-28T07:15:28;2.28;;;0.90;;
64498;SDS011;51087;55.718;21.122;2023-02-28T07:17:57;6.75;;;1.00;;
64498;SDS011;51087;55.718;21.122;2023-02-28T07:20:23;3.17;;;0.45;;
64498;SDS011;51087;55.718;21.122;2023-02-28T07:22:49;7.47;;;0.93;;
64498;SDS011;51087;55.718;21.122;2023-02-28T07:25:21;5.30;;;1.23;;
64498;SDS011;51087;55.718;21.122;2023-02-28T07:27:48;5.28;;;0.80;;
64498;SDS011;51087;55.718;21.122;2023-02-28T07:30:13;5.15;;;0.80;;
64498;SDS011;51087;55.718;21.122;2023-02-28T07:32:39;3.38;;;0.95;;
64498;SDS011;51087;55.718;21.122;2023-02-28T07:35:05;6.00;;;1.00;;
64498;SDS011;51087;55.718;21.122;2023-02-28T07:37:30;2.72;;;0.88;;
64498;SDS011;51087;55.718;21.122;2023-02-28T07:40:02;5.82;;;1.10;;
64498;SDS011;51087;55.718;21.122;2023-02-28T07:42:31;3.47;;;0.93;;
64498;SDS011;51087;55.718;21.122;2023-02-28T07:44:57;1.45;;;0.75;;
64498;SDS011;51087;55.718;21.122;2023-02-28T07:47:22;8.38;;;0.68;;
64498;SDS011;51087;55.718;21.122;2023-02-28T07:49:47;6.90;;;1.05;;
64498;SDS011;51087;55.718;21.122;2023-02-28T07:52:13;2.40;;;0.63;;
64498;SDS011;51087;55.718;21.122;2023-02-28T07:54:38;3.55;;;0.90;;
64498;SDS011;51087;55.718;21.122;2023-02-28T07:57:04;5.60;;;0.93;;
64498;SDS011;51087;55.718;21.122;2023-02-28T07:59:29;7.53;;;1.30;;
64498;SDS011;51087;55.718;21.122;2023-02-28T08:01:56;5.63;;;0.93;;
64498;SDS011;51087;55.718;21.122;2023-02-28T08:04:22;4.43;;;1.33;;
64498;SDS011;51087;55.718;21.122;2023-02-28T08:06:47;7.47;;;1.00;;
64498;SDS011;51087;55.718;21.122;2023-02-28T08:09:13;0.73;;;0.47;;
64498;SDS011;51087;55.718;21.122;2023-02-28T08:11:39;13.23;;;5.45;;
64498;SDS011;51087;55.718;21.122;2023-02-28T08:14:04;6.13;;;1.63;;
64498;SDS011;51087;55.718;21.122;2023-02-28T08:16:30;3.47;;;1.20;;
64498;SDS011;51087;55.718;21.122;2023-02-28T08:18:56;8.40;;;2.13;;
64498;SDS011;51087;55.718;21.122;2023-02-28T08:21:22;3.80;;;1.23;;
64498;SDS011;51087;55.718;21.122;2023-02-28T08:23:48;6.55;;;1.55;;
64498;SDS011;51087;55.718;21.122;2023-02-28T08:26:18;5.78;;;1.17;;
64498;SDS011;51087;55.718;21.122;2023-02-28T08:28:45;5.75;;;2.30;;
64498;SDS011;51087;55.718;21.122;2023-02-28T08:31:11;5.88;;;1.88;;
64498;SDS011;51087;55.718;21.122;2023-02-28T08:33:39;17.90;;;5.65;;
64498;SDS011;51087;55.718;21.122;2023-02-28T08:36:06;5.15;;;1.73;;
64498;SDS011;51087;55.718;21.122;2023-02-28T08:38:32;2.38;;;1.30;;
64498;SDS011;51087;55.718;21.122;2023-02-28T08:40:59;6.80;;;2.63;;
64498;SDS011;51087;55.718;21.122;2023-02-28T08:45:57;2.00;;;1.17;;
64498;SDS011;51087;55.718;21.122;2023-02-28T08:48:23;2.60;;;0.98;;
64498;SDS011;51087;55.718;21.122;2023-02-28T08:51:00;5.90;;;2.42;;
64498;SDS011;51087;55.718;21.122;2023-02-28T08:53:28;11.38;;;3.50;;
64498;SDS011;51087;55.718;21.122;2023-02-28T08:56:01;4.55;;;1.20;;
64498;SDS011;51087;55.718;21.122;2023-02-28T08:58:30;3.03;;;0.98;;
64498;SDS011;51087;55.718;21.122;2023-02-28T09:00:55;3.13;;;1.08;;
64498;SDS011;51087;55.718;21.122;2023-02-28T09:03:22;4.65;;;2.05;;
64498;SDS011;51087;55.718;21.122;2023-02-28T09:05:58;2.22;;;1.17;;
64498;SDS011;51087;55.718;21.122;2023-02-28T09:08:26;3.78;;;1.05;;
64498;SDS011;51087;55.718;21.122;2023-02-28T09:10:55;3.40;;;0.98;;
64498;SDS011;51087;55.718;21.122;2023-02-28T09:13:22;3.63;;;1.00;;
64498;SDS011;51087;55.718;21.122;2023-02-28T09:15:49;2.25;;;0.80;;
64498;SDS011;51087;55.718;21.122;2023-02-28T09:18:14;3.13;;;1.13;;
64498;SDS011;51087;55.718;21.122;2023-02-28T09:20:40;6.05;;;1.50;;
64498;SDS011;51087;55.718;21.122;2023-02-28T09:23:06;10.38;;;1.27;;
64498;SDS011;51087;55.718;21.122;2023-02-28T09:25:33;2.45;;;1.10;;
64498;SDS011;51087;55.718;21.122;2023-02-28T09:28:00;4.70;;;1.27;;
64498;SDS011;51087;55.718;21.122;2023-02-28T09:30:26;2.28;;;1.00;;
64498;SDS011;51087;55.718;21.122;2023-02-28T09:32:51;3.78;;;1.20;;
64498;SDS011;51087;55.718;21.122;2023-02-28T09:35:19;4.40;;;1.15;;
64498;SDS011;51087;55.718;21.122;2023-02-28T09:37:46;4.97;;;1.33;;
64498;SDS011;51087;55.718;21.122;2023-02-28T09:40:12;3.78;;;1.25;;
64498;SDS011;51087;55.718;21.122;2023-02-28T09:42:39;3.08;;;1.17;;
64498;SDS011;51087;55.718;21.122;2023-02-28T09:45:07;4.20;;;1.20;;
64498;SDS011;51087;55.718;21.122;2023-02-28T09:47:55;3.47;;;1.30;;
64498;SDS011;51087;55.718;21.122;2023-02-28T09:50:38;5.30;;;1.00;;
64498;SDS011;51087;55.718;21.122;2023-02-28T09:55:53;4.43;;;1.20;;
64498;SDS011;51087;55.718;21.122;2023-02-28T10:07:02;1.95;;;0.95;;
64498;SDS011;51087;55.718;21.122;2023-02-28T10:09:42;4.93;;;1.10;;
64498;SDS011;51087;55.718;21.122;2023-02-28T10:12:10;5.28;;;0.90;;
64498;SDS011;51087;55.718;21.122;2023-02-28T10:14:37;4.97;;;0.77;;
64498;SDS011;51087;55.718;21.122;2023-02-28T10:25:53;2.97;;;0.93;;
64498;SDS011;51087;55.718;21.122;2023-02-28T10:28:23;3.03;;;1.02;;
64498;SDS011;51087;55.718;21.122;2023-02-28T10:30:50;2.45;;;0.95;;
64498;SDS011;51087;55.718;21.122;2023-02-28T10:33:25;8.27;;;1.08;;
64498;SDS011;51087;55.718;21.122;2023-02-28T10:35:55;5.90;;;1.00;;
64498;SDS011;51087;55.718;21.122;2023-02-28T10:38:31;3.47;;;0.80;;
64498;SDS011;51087;55.718;21.122;2023-02-28T10:41:12;4.15;;;1.50;;
64498;SDS011;51087;55.718;21.122;2023-02-28T10:43:39;4.70;;;1.27;;
64498;SDS011;51087;55.718;21.122;2023-02-28T10:48:38;2.80;;;0.88;;
64498;SDS011;51087;55.718;21.122;2023-02-28T10:51:08;3.15;;;0.82;;
64498;SDS011;51087;55.718;21.122;2023-02-28T10:53:45;5.57;;;1.60;;
64498;SDS011;51087;55.718;21.122;2023-02-28T11:03:44;4.55;;;1.05;;
64498;SDS011;51087;55.718;21.122;2023-02-28T11:06:20;3.92;;;1.30;;
64498;SDS011;51087;55.718;21.122;2023-02-28T11:11:16;8.30;;;2.42;;
64498;SDS011;51087;55.718;21.122;2023-02-28T11:13:42;4.43;;;1.02;;
64498;SDS011;51087;55.718;21.122;2023-02-28T11:16:10;4.88;;;1.92;;
64498;SDS011;51087;55.718;21.122;2023-02-28T11:18:47;2.38;;;0.93;;
64498;SDS011;51087;55.718;21.122;2023-02-28T11:21:17;3.25;;;0.88;;
64498;SDS011;51087;55.718;21.122;2023-02-28T11:24:55;5.85;;;1.48;;
64498;SDS011;51087;55.718;21.122;2023-02-28T11:26:53;7.03;;;1.10;;
64498;SDS011;51087;55.718;21.122;2023-02-28T11:34:27;4.15;;;1.00;;
64498;SDS011;51087;55.718;21.122;2023-02-28T11:36:57;2.50;;;1.00;;
64498;SDS011;51087;55.718;21.122;2023-02-28T11:39:24;7.03;;;2.45;;
64498;SDS011;51087;55.718;21.122;2023-02-28T11:47:12;13.73;;;5.40;;
64498;SDS011;51087;55.718;21.122;2023-02-28T11:53:22;3.35;;;1.00;;
64498;SDS011;51087;55.718;21.122;2023-02-28T11:56:10;5.22;;;1.42;;
64498;SDS011;51087;55.718;21.122;2023-02-28T12:26:34;2.17;;;1.00;;
64498;SDS011;51087;55.718;21.122;2023-02-28T12:31:46;7.15;;;2.65;;
64498;SDS011;51087;55.718;21.122;2023-02-28T12:34:19;3.80;;;2.00;;
64498;SDS011;51087;55.718;21.122;2023-02-28T12:36:48;7.18;;;2.80;;
64498;SDS011;51087;55.718;21.122;2023-02-28T12:39:19;7.20;;;3.10;;
64498;SDS011;51087;55.718;21.122;2023-02-28T12:42:01;7.55;;;2.20;;
64498;SDS011;51087;55.718;21.122;2023-02-28T12:47:15;3.10;;;1.40;;
64498;SDS011;51087;55.718;21.122;2023-02-28T12:49:58;3.13;;;1.17;;
64498;SDS011;51087;55.718;21.122;2023-02-28T12:52:39;4.32;;;1.30;;
64498;SDS011;51087;55.718;21.122;2023-02-28T12:55:24;7.00;;;1.48;;
64498;SDS011;51087;55.718;21.122;2023-02-28T12:58:10;8.35;;;1.50;;
64498;SDS011;51087;55.718;21.122;2023-02-28T13:06:45;4.53;;;1.55;;
64498;SDS011;51087;55.718;21.122;2023-02-28T13:09:23;5.47;;;2.40;;
64498;SDS011;51087;55.718;21.122;2023-02-28T13:11:49;5.70;;;1.83;;
64498;SDS011;51087;55.718;21.122;2023-02-28T13:19:18;9.00;;;2.88;;
64498;SDS011;51087;55.718;21.122;2023-02-28T13:21:49;7.65;;;2.70;;
64498;SDS011;51087;55.718;21.122;2023-02-28T13:29:35;10.57;;;2.63;;
64498;SDS011;51087;55.718;21.122;2023-02-28T13:34:30;10.05;;;1.98;;
64498;SDS011;51087;55.718;21.122;2023-02-28T13:37:29;4.20;;;1.38;;
64498;SDS011;51087;55.718;21.122;2023-02-28T13:47:28;6.88;;;2.45;;
64498;SDS011;51087;55.718;21.122;2023-02-28T13:53:00;5.85;;;1.42;;
64498;SDS011;51087;55.718;21.122;2023-02-28T14:01:12;3.97;;;1.73;;
64498;SDS011;51087;55.718;21.122;2023-02-28T14:07:02;4.75;;;1.63;;
64498;SDS011;51087;55.718;21.122;2023-02-28T14:09:34;3.47;;;1.48;;
64498;SDS011;51087;55.718;21.122;2023-02-28T14:17:54;5.38;;;1.40;;
64498;SDS011;51087;55.718;21.122;2023-02-28T14:20:21;3.47;;;1.27;;
64498;SDS011;51087;55.718;21.122;2023-02-28T14:25:41;7.15;;;1.85;;
64498;SDS011;51087;55.718;21.122;2023-02-28T14:31:23;4.53;;;1.23;;
64498;SDS011;51087;55.718;21.122;2023-02-28T14:36:52;15.13;;;6.18;;
64498;SDS011;51087;55.718;21.122;2023-02-28T14:39:20;2.47;;;1.10;;
64498;SDS011;51087;55.718;21.122;2023-02-28T14:41:47;9.60;;;2.55;;
64498;SDS011;51087;55.718;21.122;2023-02-28T14:44:15;3.50;;;1.63;;
64498;SDS011;51087;55.718;21.122;2023-02-28T14:46:43;9.75;;;3.13;;
64498;SDS011;51087;55.718;21.122;2023-02-28T14:52:15;6.63;;;2.25;;
64498;SDS011;51087;55.718;21.122;2023-02-28T14:54:45;4.00;;;1.27;;
64498;SDS011;51087;55.718;21.122;2023-02-28T14:57:21;5.10;;;1.70;;
64498;SDS011;51087;55.718;21.122;2023-02-28T14:59:56;6.50;;;1.30;;
64498;SDS011;51087;55.718;21.122;2023-02-28T15:02:23;6.35;;;1.60;;
64498;SDS011;51087;55.718;21.122;2023-02-28T15:04:54;4.22;;;1.33;;
64498;SDS011;51087;55.718;21.122;2023-02-28T15:07:25;6.68;;;1.48;;
64498;SDS011;51087;55.718;21.122;2023-02-28T15:13:20;3.55;;;1.48;;
64498;SDS011;51087;55.718;21.122;2023-02-28T15:21:04;11.82;;;4.10;;
64498;SDS011;51087;55.718;21.122;2023-02-28T15:23:34;6.28;;;1.85;;
64498;SDS011;51087;55.718;21.122;2023-02-28T15:26:01;9.30;;;2.72;;
64498;SDS011;51087;55.718;21.122;2023-02-28T15:28:27;2.78;;;1.48;;
64498;SDS011;51087;55.718;21.122;2023-02-28T15:30:57;6.50;;;2.00;;
64498;SDS011;51087;55.718;21.122;2023-02-28T15:33:26;10.20;;;3.90;;
64498;SDS011;51087;55.718;21.122;2023-02-28T15:36:54;13.27;;;4.10;;
64498;SDS011;51087;55.718;21.122;2023-02-28T15:38:54;14.98;;;3.17;;
64498;SDS011;51087;55.718;21.122;2023-02-28T15:41:24;6.50;;;2.45;;
64498;SDS011;51087;55.718;21.122;2023-02-28T15:47:04;8.68;;;2.70;;
64498;SDS011;51087;55.718;21.122;2023-02-28T15:49:38;10.23;;;3.70;;
64498;SDS011;51087;55.718;21.122;2023-02-28T15:52:12;13.48;;;4.78;;
64498;SDS011;51087;55.718;21.122;2023-02-28T15:54:40;20.13;;;6.43;;
64498;SDS011;51087;55.718;21.122;2023-02-28T15:57:07;9.98;;;2.95;;
64498;SDS011;51087;55.718;21.122;2023-02-28T15:59:42;11.25;;;3.28;;
64498;SDS011;51087;55.718;21.122;2023-02-28T16:02:22;7.40;;;2.65;;
64498;SDS011;51087;55.718;21.122;2023-02-28T16:04:59;11.40;;;3.30;;
64498;SDS011;51087;55.718;21.122;2023-02-28T16:07:32;11.00;;;3.13;;
64498;SDS011;51087;55.718;21.122;2023-02-28T16:09:59;8.60;;;3.33;;
64498;SDS011;51087;55.718;21.122;2023-02-28T16:12:35;8.27;;;3.42;;
64498;SDS011;51087;55.718;21.122;2023-02-28T16:15:07;12.65;;;3.60;;
64498;SDS011;51087;55.718;21.122;2023-02-28T16:17:41;14.15;;;4.28;;
64498;SDS011;51087;55.718;21.122;2023-02-28T16:20:17;15.70;;;5.05;;
64498;SDS011;51087;55.718;21.122;2023-02-28T16:22:48;18.73;;;4.15;;
64498;SDS011;51087;55.718;21.122;2023-02-28T16:25:24;21.17;;;5.07;;
64498;SDS011;51087;55.718;21.122;2023-02-28T16:27:58;19.92;;;5.05;;
64498;SDS011;51087;55.718;21.122;2023-02-28T16:30:26;16.55;;;4.68;;
64498;SDS011;51087;55.718;21.122;2023-02-28T16:32:56;15.10;;;4.82;;
64498;SDS011;51087;55.718;21.122;2023-02-28T16:35:22;21.15;;;6.47;;
64498;SDS011;51087;55.718;21.122;2023-02-28T16:37:50;37.30;;;5.95;;
64498;SDS011;51087;55.718;21.122;2023-02-28T16:40:16;19.23;;;4.90;;
64498;SDS011;51087;55.718;21.122;2023-02-28T16:42:48;13.52;;;4.38;;
64498;SDS011;51087;55.718;21.122;2023-02-28T16:45:16;16.48;;;4.95;;
64498;SDS011;51087;55.718;21.122;2023-02-28T16:47:49;11.90;;;4.97;;
64498;SDS011;51087;55.718;21.122;2023-02-28T16:50:20;15.55;;;5.03;;
64498;SDS011;51087;55.718;21.122;2023-02-28T16:52:50;24.63;;;7.57;;
64498;SDS011;51087;55.718;21.122;2023-02-28T16:55:20;12.02;;;3.63;;
64498;SDS011;51087;55.718;21.122;2023-02-28T16:57:56;18.77;;;6.85;;
64498;SDS011;51087;55.718;21.122;2023-02-28T17:00:24;24.83;;;6.20;;
64498;SDS011;51087;55.718;21.122;2023-02-28T17:02:50;9.13;;;3.83;;
64498;SDS011;51087;55.718;21.122;2023-02-28T17:05:16;11.60;;;4.18;;
64498;SDS011;51087;55.718;21.122;2023-02-28T17:07:42;15.38;;;5.22;;
64498;SDS011;51087;55.718;21.122;2023-02-28T17:12:39;8.40;;;3.85;;
64498;SDS011;51087;55.718;21.122;2023-02-28T17:15:06;15.40;;;5.57;;
64498;SDS011;51087;55.718;21.122;2023-02-28T17:17:32;16.52;;;6.10;;
64498;SDS011;51087;55.718;21.122;2023-02-28T17:19:58;14.13;;;4.25;;
64498;SDS011;51087;55.718;21.122;2023-02-28T17:22:24;17.98;;;5.65;;
64498;SDS011;51087;55.718;21.122;2023-02-28T17:24:51;13.25;;;4.25;;
64498;SDS011;51087;55.718;21.122;2023-02-28T17:27:20;23.38;;;6.13;;
64498;SDS011;51087;55.718;21.122;2023-02-28T17:29:46;14.43;;;4.90;;
64498;SDS011;51087;55.718;21.122;2023-02-28T17:32:12;21.17;;;6.15;;
64498;SDS011;51087;55.718;21.122;2023-02-28T17:34:37;22.08;;;4.82;;
64498;SDS011;51087;55.718;21.122;2023-02-28T17:37:03;25.80;;;7.13;;
64498;SDS011;51087;55.718;21.122;2023-02-28T17:39:29;12.95;;;3.55;;
64498;SDS011;51087;55.718;21.122;2023-02-28T17:41:56;17.08;;;5.38;;
64498;SDS011;51087;55.718;21.122;2023-02-28T17:44:22;11.60;;;4.32;;
64498;SDS011;51087;55.718;21.122;2023-02-28T17:46:49;32.70;;;6.70;;
64498;SDS011;51087;55.718;21.122;2023-02-28T17:49:15;14.50;;;4.38;;
64498;SDS011;51087;55.718;21.122;2023-02-28T17:51:42;14.13;;;3.97;;
64498;SDS011;51087;55.718;21.122;2023-02-28T17:54:07;12.82;;;5.15;;
64498;SDS011;51087;55.718;21.122;2023-02-28T17:56:33;14.50;;;4.85;;
64498;SDS011;51087;55.718;21.122;2023-02-28T17:58:58;15.10;;;4.15;;